Rio Orinoco — V7VX7 — position and weather

sailwx.info

Track history (hours):
 
Tides and Currents Weather Stations Pressure Air Temp Water Temp Dewpoint Dewpoint Depression Visibility Wind Speed Wind Dir Waves Ship Positions

Rio Orinoco

Last reported at 2014-Nov-23 06:24 UTC. Time now 2014-Nov-28 15:46 UTC.
Position N 34°01' E 134°55'.

Length 274 m; draft 9.1 m.

Type: Tanker. MMSI: 538004236.

Date/timePositionNaut miles runAvg speedWind from/ knotsBaromVisibWave heightAir tempDewpointWater temp
2014-Nov-23 06:24N 34°01' E 134°55'1112.9
2014-Nov-23 05:33N 34°12' E 134°57'1313.1
2014-Nov-23 04:33N 34°24' E 135°02'1414.1
2014-Nov-23 03:33N 34°32' E 135°16'8 8.1
2014-Nov-23 02:31N 34°33' E 135°26'0 0.0
2014-Nov-22 05:24N 34°33' E 135°26'0 0.0
2014-Nov-22 04:24N 34°33' E 135°26'0 0.1
2014-Nov-22 03:31N 34°33' E 135°26'5 5.6
2014-Nov-22 02:33N 34°34' E 135°19'0 0.1
2014-Nov-22 01:18N 34°34' E 135°19'0 0.0
2014-Nov-22 00:03N 34°34' E 135°19'0 0.0
2014-Nov-21 23:33N 34°34' E 135°19'0 0.0
2014-Nov-21 22:27N 34°34' E 135°19'0 0.0
2014-Nov-21 21:33N 34°34' E 135°19'0 0.0
2014-Nov-21 20:09N 34°34' E 135°19'0 0.1
2014-Nov-21 19:33N 34°34' E 135°19'0 0.1
2014-Nov-21 18:33N 34°34' E 135°19'0 0.0
2014-Nov-21 17:33N 34°34' E 135°19'0 0.0
2014-Nov-21 16:33N 34°34' E 135°19'0 0.0
2014-Nov-21 15:27N 34°34' E 135°19'0 0.1
2014-Nov-21 14:33N 34°34' E 135°19'0 0.0
2014-Nov-21 13:30N 34°34' E 135°19'0 0.0
2014-Nov-21 12:30N 34°34' E 135°19'0 0.0
2014-Nov-21 11:30N 34°34' E 135°19'0 0.3
2014-Nov-21 10:33N 34°34' E 135°19'9 9.4
2014-Nov-21 09:33N 34°29' E 135°09'1313.3
2014-Nov-21 08:33N 34°18' E 134°60'1110.7
2014-Nov-21 07:34N 34°08' E 134°59'9 8.5
2014-Nov-21 06:33N 33°60' E 134°56'8 7.6
2014-Nov-21 05:33N 33°52' E 134°57'245 9.3
2014-Nov-20 03:19N 35°03' E 139°41'911.7
2014-Nov-20 02:31N 35°11' E 139°46'1111.5
2014-Nov-20 01:33N 35°22' E 139°42'8 7.0
2014-Nov-20 00:22N 35°29' E 139°47'0 0.0
2014-Nov-19 18:04N 35°29' E 139°47'0 0.0
2014-Nov-19 16:28N 35°29' E 139°47'0 0.0
2014-Nov-19 15:31N 35°29' E 139°47'0 0.0
2014-Nov-19 11:31N 35°29' E 139°47'0 0.0
2014-Nov-19 08:25N 35°29' E 139°47'0 0.0
2014-Nov-19 07:33N 35°29' E 139°47'0 0.0
2014-Nov-19 06:33N 35°29' E 139°47'0 0.0
2014-Nov-19 05:33N 35°29' E 139°47'0 0.0
2014-Nov-19 04:29N 35°29' E 139°47'0 0.0
2014-Nov-19 03:34N 35°29' E 139°47'0 0.0
2014-Nov-19 02:30N 35°29' E 139°47'0 0.0
2014-Nov-19 01:33N 35°29' E 139°47'3 3.1
2014-Nov-19 00:33N 35°26' E 139°47'1110.6
2014-Nov-18 23:34N 35°15' E 139°47'8 8.2
2014-Nov-18 22:33N 35°07' E 139°46'6 6.1
2014-Nov-18 21:34N 35°02' E 139°42'  
Track history (hours):
 
Tides and Currents Weather Stations Pressure Air Temp Water Temp Dewpoint Dewpoint Depression Visibility Wind Speed Wind Dir Waves Ship Positions

Rio Orinoco

Last reported at 2014-Nov-23 06:24 UTC. Time now 2014-Nov-28 15:46 UTC.
Position N 34°01' E 134°55'.

Length 274 m; draft 9.1 m.

Type: Tanker. MMSI: 538004236.

Date/timePositionNaut miles runAvg speedWind from/ knotsBaromVisibWave heightAir tempDewpointWater temp
2014-Nov-23 06:24N 34°01' E 134°55'1112.9
2014-Nov-23 05:33N 34°12' E 134°57'1313.1
2014-Nov-23 04:33N 34°24' E 135°02'1414.1
2014-Nov-23 03:33N 34°32' E 135°16'8 8.1
2014-Nov-23 02:31N 34°33' E 135°26'0 0.0
2014-Nov-22 05:24N 34°33' E 135°26'0 0.0
2014-Nov-22 04:24N 34°33' E 135°26'0 0.1
2014-Nov-22 03:31N 34°33' E 135°26'5 5.6
2014-Nov-22 02:33N 34°34' E 135°19'0 0.1
2014-Nov-22 01:18N 34°34' E 135°19'0 0.0
2014-Nov-22 00:03N 34°34' E 135°19'0 0.0
2014-Nov-21 23:33N 34°34' E 135°19'0 0.0
2014-Nov-21 22:27N 34°34' E 135°19'0 0.0
2014-Nov-21 21:33N 34°34' E 135°19'0 0.0
2014-Nov-21 20:09N 34°34' E 135°19'0 0.1
2014-Nov-21 19:33N 34°34' E 135°19'0 0.1
2014-Nov-21 18:33N 34°34' E 135°19'0 0.0
2014-Nov-21 17:33N 34°34' E 135°19'0 0.0
2014-Nov-21 16:33N 34°34' E 135°19'0 0.0
2014-Nov-21 15:27N 34°34' E 135°19'0 0.1
2014-Nov-21 14:33N 34°34' E 135°19'0 0.0
2014-Nov-21 13:30N 34°34' E 135°19'0 0.0
2014-Nov-21 12:30N 34°34' E 135°19'0 0.0
2014-Nov-21 11:30N 34°34' E 135°19'0 0.3
2014-Nov-21 10:33N 34°34' E 135°19'9 9.4
2014-Nov-21 09:33N 34°29' E 135°09'1313.3
2014-Nov-21 08:33N 34°18' E 134°60'1110.7
2014-Nov-21 07:34N 34°08' E 134°59'9 8.5
2014-Nov-21 06:33N 33°60' E 134°56'8 7.6
2014-Nov-21 05:33N 33°52' E 134°57'245 9.3
2014-Nov-20 03:19N 35°03' E 139°41'911.7
2014-Nov-20 02:31N 35°11' E 139°46'1111.5
2014-Nov-20 01:33N 35°22' E 139°42'8 7.0
2014-Nov-20 00:22N 35°29' E 139°47'0 0.0
2014-Nov-19 18:04N 35°29' E 139°47'0 0.0
2014-Nov-19 16:28N 35°29' E 139°47'0 0.0
2014-Nov-19 15:31N 35°29' E 139°47'0 0.0
2014-Nov-19 11:31N 35°29' E 139°47'0 0.0
2014-Nov-19 08:25N 35°29' E 139°47'0 0.0
2014-Nov-19 07:33N 35°29' E 139°47'0 0.0
2014-Nov-19 06:33N 35°29' E 139°47'0 0.0
2014-Nov-19 05:33N 35°29' E 139°47'0 0.0
2014-Nov-19 04:29N 35°29' E 139°47'0 0.0
2014-Nov-19 03:34N 35°29' E 139°47'0 0.0
2014-Nov-19 02:30N 35°29' E 139°47'0 0.0
2014-Nov-19 01:33N 35°29' E 139°47'3 3.1
2014-Nov-19 00:33N 35°26' E 139°47'1110.6
2014-Nov-18 23:34N 35°15' E 139°47'8 8.2
2014-Nov-18 22:33N 35°07' E 139°46'6 6.1
2014-Nov-18 21:34N 35°02' E 139°42'  

Dump ship's entire track history